sensor_id;sensor_type;location;lat;lon;timestamp;temperature;humidity
3037;DHT22;1528;52.550;13.408;2022-11-20T00:00:53;2.30;48.60
3037;DHT22;1528;52.550;13.408;2022-11-20T00:03:39;2.30;49.70
3037;DHT22;1528;52.550;13.408;2022-11-20T00:06:26;2.30;48.70
3037;DHT22;1528;52.550;13.408;2022-11-20T00:09:12;2.30;49.60
3037;DHT22;1528;52.550;13.408;2022-11-20T00:11:57;2.50;48.70
3037;DHT22;1528;52.550;13.408;2022-11-20T00:14:44;2.30;47.80
3037;DHT22;1528;52.550;13.408;2022-11-20T00:17:29;2.30;48.70
3037;DHT22;1528;52.550;13.408;2022-11-20T00:20:15;2.40;47.60
3037;DHT22;1528;52.550;13.408;2022-11-20T00:23:01;2.20;48.30
3037;DHT22;1528;52.550;13.408;2022-11-20T00:25:47;2.40;48.00
3037;DHT22;1528;52.550;13.408;2022-11-20T00:28:33;2.20;47.70
3037;DHT22;1528;52.550;13.408;2022-11-20T00:31:20;2.30;46.90
3037;DHT22;1528;52.550;13.408;2022-11-20T00:34:05;2.40;47.40
3037;DHT22;1528;52.550;13.408;2022-11-20T00:36:51;2.40;47.70
3037;DHT22;1528;52.550;13.408;2022-11-20T00:39:37;2.30;50.00
3037;DHT22;1528;52.550;13.408;2022-11-20T00:42:23;2.20;48.10
3037;DHT22;1528;52.550;13.408;2022-11-20T00:45:08;2.10;47.30
3037;DHT22;1528;52.550;13.408;2022-11-20T00:47:55;2.20;49.00
3037;DHT22;1528;52.550;13.408;2022-11-20T00:50:41;2.30;47.40
3037;DHT22;1528;52.550;13.408;2022-11-20T00:53:27;2.30;48.00
3037;DHT22;1528;52.550;13.408;2022-11-20T00:56:15;2.30;47.60
3037;DHT22;1528;52.550;13.408;2022-11-20T00:59:00;2.40;47.60
3037;DHT22;1528;52.550;13.408;2022-11-20T01:01:46;2.50;47.30
3037;DHT22;1528;52.550;13.408;2022-11-20T01:04:33;2.10;46.30
3037;DHT22;1528;52.550;13.408;2022-11-20T01:07:18;2.10;46.70
3037;DHT22;1528;52.550;13.408;2022-11-20T01:10:05;2.20;46.30
3037;DHT22;1528;52.550;13.408;2022-11-20T01:12:51;2.20;47.20
3037;DHT22;1528;52.550;13.408;2022-11-20T01:16:02;2.30;46.50
3037;DHT22;1528;52.550;13.408;2022-11-20T01:18:49;2.20;45.60
3037;DHT22;1528;52.550;13.408;2022-11-20T01:21:37;2.20;46.50
3037;DHT22;1528;52.550;13.408;2022-11-20T01:24:23;2.20;45.70
3037;DHT22;1528;52.550;13.408;2022-11-20T01:27:09;2.20;45.90
3037;DHT22;1528;52.550;13.408;2022-11-20T01:29:55;2.10;46.00
3037;DHT22;1528;52.550;13.408;2022-11-20T01:32:40;2.10;46.90
3037;DHT22;1528;52.550;13.408;2022-11-20T01:35:26;2.10;46.60
3037;DHT22;1528;52.550;13.408;2022-11-20T01:38:14;2.30;46.50
3037;DHT22;1528;52.550;13.408;2022-11-20T01:41:00;2.30;47.20
3037;DHT22;1528;52.550;13.408;2022-11-20T01:43:46;2.30;45.20
3037;DHT22;1528;52.550;13.408;2022-11-20T01:46:32;2.30;45.40
3037;DHT22;1528;52.550;13.408;2022-11-20T01:49:21;2.20;43.90
3037;DHT22;1528;52.550;13.408;2022-11-20T01:52:16;2.30;44.10
3037;DHT22;1528;52.550;13.408;2022-11-20T01:55:07;2.20;46.10
3037;DHT22;1528;52.550;13.408;2022-11-20T01:57:54;2.20;45.10
3037;DHT22;1528;52.550;13.408;2022-11-20T02:00:40;2.20;44.70
3037;DHT22;1528;52.550;13.408;2022-11-20T02:03:26;2.20;45.90
3037;DHT22;1528;52.550;13.408;2022-11-20T02:06:17;2.10;45.90
3037;DHT22;1528;52.550;13.408;2022-11-20T02:09:04;2.10;48.10
3037;DHT22;1528;52.550;13.408;2022-11-20T02:11:52;2.30;47.20
3037;DHT22;1528;52.550;13.408;2022-11-20T02:14:38;2.30;46.10
3037;DHT22;1528;52.550;13.408;2022-11-20T02:17:39;2.20;44.80
3037;DHT22;1528;52.550;13.408;2022-11-20T02:21:01;2.20;45.20
3037;DHT22;1528;52.550;13.408;2022-11-20T02:24:15;2.10;46.90
3037;DHT22;1528;52.550;13.408;2022-11-20T02:27:03;2.10;46.10
3037;DHT22;1528;52.550;13.408;2022-11-20T02:29:52;2.10;46.40
3037;DHT22;1528;52.550;13.408;2022-11-20T02:32:39;2.10;46.80
3037;DHT22;1528;52.550;13.408;2022-11-20T02:35:44;2.10;48.40
3037;DHT22;1528;52.550;13.408;2022-11-20T02:38:30;2.30;47.40
3037;DHT22;1528;52.550;13.408;2022-11-20T02:41:18;2.40;46.60
3037;DHT22;1528;52.550;13.408;2022-11-20T02:44:04;2.40;46.60
3037;DHT22;1528;52.550;13.408;2022-11-20T02:46:50;2.50;44.80
3037;DHT22;1528;52.550;13.408;2022-11-20T02:49:35;2.20;45.10
3037;DHT22;1528;52.550;13.408;2022-11-20T02:52:21;2.20;44.40
3037;DHT22;1528;52.550;13.408;2022-11-20T02:55:07;2.30;43.20
3037;DHT22;1528;52.550;13.408;2022-11-20T02:57:54;2.30;43.80
3037;DHT22;1528;52.550;13.408;2022-11-20T03:00:40;2.20;44.00
3037;DHT22;1528;52.550;13.408;2022-11-20T03:03:25;2.20;43.90
3037;DHT22;1528;52.550;13.408;2022-11-20T03:06:11;2.30;43.20
3037;DHT22;1528;52.550;13.408;2022-11-20T03:08:56;2.20;43.20
3037;DHT22;1528;52.550;13.408;2022-11-20T03:11:42;2.20;42.80
3037;DHT22;1528;52.550;13.408;2022-11-20T03:14:29;2.10;43.50
3037;DHT22;1528;52.550;13.408;2022-11-20T03:17:16;2.20;44.40
3037;DHT22;1528;52.550;13.408;2022-11-20T03:20:03;2.10;43.20
3037;DHT22;1528;52.550;13.408;2022-11-20T03:22:50;2.20;42.60
3037;DHT22;1528;52.550;13.408;2022-11-20T03:25:35;2.20;41.90
3037;DHT22;1528;52.550;13.408;2022-11-20T03:28:21;2.30;42.20
3037;DHT22;1528;52.550;13.408;2022-11-20T03:31:10;2.30;42.70
3037;DHT22;1528;52.550;13.408;2022-11-20T03:33:56;2.40;42.20
3037;DHT22;1528;52.550;13.408;2022-11-20T03:36:42;2.20;41.30
3037;DHT22;1528;52.550;13.408;2022-11-20T03:39:28;2.20;42.30
3037;DHT22;1528;52.550;13.408;2022-11-20T03:42:13;2.20;41.10
3037;DHT22;1528;52.550;13.408;2022-11-20T03:45:13;2.20;41.20
3037;DHT22;1528;52.550;13.408;2022-11-20T03:48:00;2.10;42.40
3037;DHT22;1528;52.550;13.408;2022-11-20T03:50:46;2.20;41.20
3037;DHT22;1528;52.550;13.408;2022-11-20T03:53:32;2.30;41.10
3037;DHT22;1528;52.550;13.408;2022-11-20T03:56:20;2.30;40.80
3037;DHT22;1528;52.550;13.408;2022-11-20T03:59:05;2.30;41.00
3037;DHT22;1528;52.550;13.408;2022-11-20T04:01:51;2.30;40.10
3037;DHT22;1528;52.550;13.408;2022-11-20T04:04:38;2.40;40.80
3037;DHT22;1528;52.550;13.408;2022-11-20T04:07:23;2.30;39.60
3037;DHT22;1528;52.550;13.408;2022-11-20T04:10:09;2.30;40.90
3037;DHT22;1528;52.550;13.408;2022-11-20T04:12:54;2.40;40.80
3037;DHT22;1528;52.550;13.408;2022-11-20T04:15:39;2.40;39.40
3037;DHT22;1528;52.550;13.408;2022-11-20T04:18:25;2.30;40.00
3037;DHT22;1528;52.550;13.408;2022-11-20T04:21:12;2.30;40.70
3037;DHT22;1528;52.550;13.408;2022-11-20T04:23:58;2.30;39.20
3037;DHT22;1528;52.550;13.408;2022-11-20T04:26:43;2.20;39.90
3037;DHT22;1528;52.550;13.408;2022-11-20T04:29:28;2.10;40.10
3037;DHT22;1528;52.550;13.408;2022-11-20T04:32:14;2.20;40.80
3037;DHT22;1528;52.550;13.408;2022-11-20T04:34:59;2.40;40.00
3037;DHT22;1528;52.550;13.408;2022-11-20T04:37:46;2.40;39.60
3037;DHT22;1528;52.550;13.408;2022-11-20T04:40:32;2.50;38.60
3037;DHT22;1528;52.550;13.408;2022-11-20T04:43:17;2.40;38.90
3037;DHT22;1528;52.550;13.408;2022-11-20T04:46:03;2.40;39.00
3037;DHT22;1528;52.550;13.408;2022-11-20T04:48:48;2.20;40.10
3037;DHT22;1528;52.550;13.408;2022-11-20T04:51:34;2.40;40.00
3037;DHT22;1528;52.550;13.408;2022-11-20T04:54:21;2.40;42.60
3037;DHT22;1528;52.550;13.408;2022-11-20T04:57:06;2.40;42.30
3037;DHT22;1528;52.550;13.408;2022-11-20T04:59:52;2.40;41.20
3037;DHT22;1528;52.550;13.408;2022-11-20T05:02:38;2.50;40.80
3037;DHT22;1528;52.550;13.408;2022-11-20T05:05:23;2.50;41.60
3037;DHT22;1528;52.550;13.408;2022-11-20T05:08:09;2.70;40.00
3037;DHT22;1528;52.550;13.408;2022-11-20T05:10:59;2.70;40.40
3037;DHT22;1528;52.550;13.408;2022-11-20T05:13:45;2.90;38.60
3037;DHT22;1528;52.550;13.408;2022-11-20T05:16:30;2.60;40.00
3037;DHT22;1528;52.550;13.408;2022-11-20T05:19:16;2.70;38.80
3037;DHT22;1528;52.550;13.408;2022-11-20T05:22:01;2.70;38.40
3037;DHT22;1528;52.550;13.408;2022-11-20T05:24:47;2.80;38.60
3037;DHT22;1528;52.550;13.408;2022-11-20T05:27:34;2.70;39.00
3037;DHT22;1528;52.550;13.408;2022-11-20T05:30:19;2.70;38.10
3037;DHT22;1528;52.550;13.408;2022-11-20T05:33:05;2.70;37.30
3037;DHT22;1528;52.550;13.408;2022-11-20T05:35:50;2.40;39.50
3037;DHT22;1528;52.550;13.408;2022-11-20T05:38:36;2.50;38.70
3037;DHT22;1528;52.550;13.408;2022-11-20T05:41:21;2.60;38.30
3037;DHT22;1528;52.550;13.408;2022-11-20T05:44:10;2.60;39.40
3037;DHT22;1528;52.550;13.408;2022-11-20T05:46:55;2.50;38.60
3037;DHT22;1528;52.550;13.408;2022-11-20T05:49:41;2.60;37.90
3037;DHT22;1528;52.550;13.408;2022-11-20T05:52:28;2.60;38.10
3037;DHT22;1528;52.550;13.408;2022-11-20T05:55:13;2.70;38.00
3037;DHT22;1528;52.550;13.408;2022-11-20T05:57:59;2.60;38.20
3037;DHT22;1528;52.550;13.408;2022-11-20T06:00:46;2.40;39.20
3037;DHT22;1528;52.550;13.408;2022-11-20T06:03:32;2.50;38.40
3037;DHT22;1528;52.550;13.408;2022-11-20T06:06:18;2.50;39.10
3037;DHT22;1528;52.550;13.408;2022-11-20T06:09:04;2.50;38.60
3037;DHT22;1528;52.550;13.408;2022-11-20T06:11:50;2.50;38.40
3037;DHT22;1528;52.550;13.408;2022-11-20T06:14:36;2.60;39.30
3037;DHT22;1528;52.550;13.408;2022-11-20T06:17:22;2.60;39.00
3037;DHT22;1528;52.550;13.408;2022-11-20T06:20:09;2.50;39.70
3037;DHT22;1528;52.550;13.408;2022-11-20T06:22:55;2.50;40.20
3037;DHT22;1528;52.550;13.408;2022-11-20T06:25:41;2.60;41.70
3037;DHT22;1528;52.550;13.408;2022-11-20T06:28:27;2.70;39.60
3037;DHT22;1528;52.550;13.408;2022-11-20T06:31:15;2.80;39.70
3037;DHT22;1528;52.550;13.408;2022-11-20T06:34:02;2.60;38.90
3037;DHT22;1528;52.550;13.408;2022-11-20T06:36:47;2.60;39.70
3037;DHT22;1528;52.550;13.408;2022-11-20T06:39:33;2.80;40.20
3037;DHT22;1528;52.550;13.408;2022-11-20T06:42:18;2.80;40.50
3037;DHT22;1528;52.550;13.408;2022-11-20T06:45:04;2.80;42.00
3037;DHT22;1528;52.550;13.408;2022-11-20T06:47:49;2.90;39.60
3037;DHT22;1528;52.550;13.408;2022-11-20T06:50:37;2.90;42.30
3037;DHT22;1528;52.550;13.408;2022-11-20T06:53:23;3.00;42.80
3037;DHT22;1528;52.550;13.408;2022-11-20T06:56:08;3.00;41.30
3037;DHT22;1528;52.550;13.408;2022-11-20T06:58:54;2.90;42.10
3037;DHT22;1528;52.550;13.408;2022-11-20T07:01:39;3.20;43.10
3037;DHT22;1528;52.550;13.408;2022-11-20T07:04:25;2.90;39.80
3037;DHT22;1528;52.550;13.408;2022-11-20T07:07:12;3.00;41.20
3037;DHT22;1528;52.550;13.408;2022-11-20T07:09:57;3.00;41.70
3037;DHT22;1528;52.550;13.408;2022-11-20T07:12:49;3.10;42.00
3037;DHT22;1528;52.550;13.408;2022-11-20T07:15:34;3.10;43.70
3037;DHT22;1528;52.550;13.408;2022-11-20T07:18:20;3.30;40.40
3037;DHT22;1528;52.550;13.408;2022-11-20T07:21:07;3.20;40.60
3037;DHT22;1528;52.550;13.408;2022-11-20T07:23:55;3.20;41.20
3037;DHT22;1528;52.550;13.408;2022-11-20T07:26:40;3.30;38.40
3037;DHT22;1528;52.550;13.408;2022-11-20T07:29:26;3.20;39.60
3037;DHT22;1528;52.550;13.408;2022-11-20T07:32:12;3.20;44.50
3037;DHT22;1528;52.550;13.408;2022-11-20T07:34:57;3.10;43.00
3037;DHT22;1528;52.550;13.408;2022-11-20T07:37:43;3.10;43.40
3037;DHT22;1528;52.550;13.408;2022-11-20T07:40:31;3.20;43.00
3037;DHT22;1528;52.550;13.408;2022-11-20T07:43:16;3.30;38.90
3037;DHT22;1528;52.550;13.408;2022-11-20T07:46:01;3.20;40.70
3037;DHT22;1528;52.550;13.408;2022-11-20T07:48:47;3.00;44.00
3037;DHT22;1528;52.550;13.408;2022-11-20T07:51:33;3.20;41.80
3037;DHT22;1528;52.550;13.408;2022-11-20T07:54:18;3.10;43.30
3037;DHT22;1528;52.550;13.408;2022-11-20T07:57:05;3.10;43.30
3037;DHT22;1528;52.550;13.408;2022-11-20T07:59:51;3.10;44.30
3037;DHT22;1528;52.550;13.408;2022-11-20T08:02:37;3.20;43.60
3037;DHT22;1528;52.550;13.408;2022-11-20T08:05:23;3.30;45.10
3037;DHT22;1528;52.550;13.408;2022-11-20T08:08:09;3.20;44.50
3037;DHT22;1528;52.550;13.408;2022-11-20T08:10:56;3.40;46.10
3037;DHT22;1528;52.550;13.408;2022-11-20T08:14:03;3.60;40.10
3037;DHT22;1528;52.550;13.408;2022-11-20T08:16:57;3.30;44.00
3037;DHT22;1528;52.550;13.408;2022-11-20T08:19:43;3.40;41.70
3037;DHT22;1528;52.550;13.408;2022-11-20T08:22:28;3.40;39.00
3037;DHT22;1528;52.550;13.408;2022-11-20T08:25:14;3.30;38.90
3037;DHT22;1528;52.550;13.408;2022-11-20T08:28:00;3.10;38.90
3037;DHT22;1528;52.550;13.408;2022-11-20T08:30:48;3.10;37.70
3037;DHT22;1528;52.550;13.408;2022-11-20T08:33:33;3.10;37.80
3037;DHT22;1528;52.550;13.408;2022-11-20T08:36:20;3.00;36.80
3037;DHT22;1528;52.550;13.408;2022-11-20T08:39:05;3.00;39.40
3037;DHT22;1528;52.550;13.408;2022-11-20T08:41:51;2.90;39.30
3037;DHT22;1528;52.550;13.408;2022-11-20T08:44:36;3.00;37.90
3037;DHT22;1528;52.550;13.408;2022-11-20T08:47:23;3.10;41.30
3037;DHT22;1528;52.550;13.408;2022-11-20T08:50:10;3.30;40.70
3037;DHT22;1528;52.550;13.408;2022-11-20T08:52:55;3.30;39.10
3037;DHT22;1528;52.550;13.408;2022-11-20T08:55:47;3.40;36.50
3037;DHT22;1528;52.550;13.408;2022-11-20T08:58:33;3.40;37.30
3037;DHT22;1528;52.550;13.408;2022-11-20T09:01:19;3.20;37.40
3037;DHT22;1528;52.550;13.408;2022-11-20T09:04:06;3.50;37.40
3037;DHT22;1528;52.550;13.408;2022-11-20T09:06:52;3.30;40.20
3037;DHT22;1528;52.550;13.408;2022-11-20T09:09:37;3.40;36.60
3037;DHT22;1528;52.550;13.408;2022-11-20T09:12:23;3.20;39.50
3037;DHT22;1528;52.550;13.408;2022-11-20T09:15:09;3.10;40.30
3037;DHT22;1528;52.550;13.408;2022-11-20T09:17:57;3.00;37.30
3037;DHT22;1528;52.550;13.408;2022-11-20T09:20:44;3.00;37.30
3037;DHT22;1528;52.550;13.408;2022-11-20T09:23:32;3.00;36.80
3037;DHT22;1528;52.550;13.408;2022-11-20T09:26:17;3.10;36.70
3037;DHT22;1528;52.550;13.408;2022-11-20T09:29:03;3.10;36.90
3037;DHT22;1528;52.550;13.408;2022-11-20T09:31:48;3.20;36.50
3037;DHT22;1528;52.550;13.408;2022-11-20T09:34:34;3.30;35.60
3037;DHT22;1528;52.550;13.408;2022-11-20T09:37:21;3.20;36.90
3037;DHT22;1528;52.550;13.408;2022-11-20T09:40:17;3.20;41.80
3037;DHT22;1528;52.550;13.408;2022-11-20T09:43:10;3.40;39.40
3037;DHT22;1528;52.550;13.408;2022-11-20T09:46:05;3.40;45.50
3037;DHT22;1528;52.550;13.408;2022-11-20T09:50:26;3.30;45.60
3037;DHT22;1528;52.550;13.408;2022-11-20T09:53:19;3.30;42.20
3037;DHT22;1528;52.550;13.408;2022-11-20T09:56:08;3.20;46.20
3037;DHT22;1528;52.550;13.408;2022-11-20T09:58:59;3.40;41.50
3037;DHT22;1528;52.550;13.408;2022-11-20T10:04:21;3.30;42.40
3037;DHT22;1528;52.550;13.408;2022-11-20T10:07:11;3.40;39.30
3037;DHT22;1528;52.550;13.408;2022-11-20T10:09:54;3.60;39.80
3037;DHT22;1528;52.550;13.408;2022-11-20T10:12:51;3.80;42.90
3037;DHT22;1528;52.550;13.408;2022-11-20T10:15:47;3.70;44.30
3037;DHT22;1528;52.550;13.408;2022-11-20T10:18:49;4.00;40.90
3037;DHT22;1528;52.550;13.408;2022-11-20T10:21:46;4.20;38.20
3037;DHT22;1528;52.550;13.408;2022-11-20T10:24:43;4.00;38.80
3037;DHT22;1528;52.550;13.408;2022-11-20T10:30:43;4.20;38.00
3037;DHT22;1528;52.550;13.408;2022-11-20T10:33:34;4.20;37.20
3037;DHT22;1528;52.550;13.408;2022-11-20T10:36:23;4.20;35.90
3037;DHT22;1528;52.550;13.408;2022-11-20T10:39:16;4.10;38.20
3037;DHT22;1528;52.550;13.408;2022-11-20T10:42:08;4.10;36.90
3037;DHT22;1528;52.550;13.408;2022-11-20T10:45:04;3.90;37.80
3037;DHT22;1528;52.550;13.408;2022-11-20T10:47:56;3.90;38.30
3037;DHT22;1528;52.550;13.408;2022-11-20T10:50:57;4.10;37.00
3037;DHT22;1528;52.550;13.408;2022-11-20T10:53:51;4.20;38.20
3037;DHT22;1528;52.550;13.408;2022-11-20T10:56:42;4.30;36.20
3037;DHT22;1528;52.550;13.408;2022-11-20T10:59:42;4.60;39.50
3037;DHT22;1528;52.550;13.408;2022-11-20T11:02:40;4.70;34.00
3037;DHT22;1528;52.550;13.408;2022-11-20T11:05:33;4.70;38.40
3037;DHT22;1528;52.550;13.408;2022-11-20T11:08:21;4.70;34.70
3037;DHT22;1528;52.550;13.408;2022-11-20T11:11:21;4.80;33.60
3037;DHT22;1528;52.550;13.408;2022-11-20T11:14:10;4.70;34.80
3037;DHT22;1528;52.550;13.408;2022-11-20T11:16:57;4.70;34.50
3037;DHT22;1528;52.550;13.408;2022-11-20T11:19:44;4.50;34.00
3037;DHT22;1528;52.550;13.408;2022-11-20T11:22:31;4.40;34.20
3037;DHT22;1528;52.550;13.408;2022-11-20T11:25:26;4.40;34.20
3037;DHT22;1528;52.550;13.408;2022-11-20T11:28:20;4.30;33.50
3037;DHT22;1528;52.550;13.408;2022-11-20T11:31:06;4.10;35.30
3037;DHT22;1528;52.550;13.408;2022-11-20T11:33:51;3.80;36.30
3037;DHT22;1528;52.550;13.408;2022-11-20T11:36:38;3.90;33.30
3037;DHT22;1528;52.550;13.408;2022-11-20T11:39:25;3.90;34.30
3037;DHT22;1528;52.550;13.408;2022-11-20T11:42:15;3.90;33.70
3037;DHT22;1528;52.550;13.408;2022-11-20T11:45:02;3.80;34.30
3037;DHT22;1528;52.550;13.408;2022-11-20T11:47:51;3.90;33.70
3037;DHT22;1528;52.550;13.408;2022-11-20T11:50:48;3.90;33.50
3037;DHT22;1528;52.550;13.408;2022-11-20T11:53:38;3.70;33.90
3037;DHT22;1528;52.550;13.408;2022-11-20T11:56:26;3.40;35.40
3037;DHT22;1528;52.550;13.408;2022-11-20T11:59:22;3.30;37.40
3037;DHT22;1528;52.550;13.408;2022-11-20T12:02:22;3.10;37.40
3037;DHT22;1528;52.550;13.408;2022-11-20T12:05:17;2.90;38.00
3037;DHT22;1528;52.550;13.408;2022-11-20T12:08:06;2.90;39.30
3037;DHT22;1528;52.550;13.408;2022-11-20T12:11:03;2.80;39.90
3037;DHT22;1528;52.550;13.408;2022-11-20T12:13:54;2.90;40.40
3037;DHT22;1528;52.550;13.408;2022-11-20T12:16:40;2.80;41.30
3037;DHT22;1528;52.550;13.408;2022-11-20T12:19:30;3.00;39.00
3037;DHT22;1528;52.550;13.408;2022-11-20T12:22:24;3.00;39.90
3037;DHT22;1528;52.550;13.408;2022-11-20T12:25:17;3.20;40.10
3037;DHT22;1528;52.550;13.408;2022-11-20T12:28:16;3.20;41.00
3037;DHT22;1528;52.550;13.408;2022-11-20T12:31:33;3.20;40.40
3037;DHT22;1528;52.550;13.408;2022-11-20T12:34:32;3.30;40.60
3037;DHT22;1528;52.550;13.408;2022-11-20T12:37:33;3.40;38.60
3037;DHT22;1528;52.550;13.408;2022-11-20T12:40:28;3.50;37.60
3037;DHT22;1528;52.550;13.408;2022-11-20T12:43:20;3.40;39.30
3037;DHT22;1528;52.550;13.408;2022-11-20T12:46:31;3.50;37.10
3037;DHT22;1528;52.550;13.408;2022-11-20T12:49:28;3.40;37.80
3037;DHT22;1528;52.550;13.408;2022-11-20T12:52:37;3.60;36.30
3037;DHT22;1528;52.550;13.408;2022-11-20T12:55:31;3.60;35.40
3037;DHT22;1528;52.550;13.408;2022-11-20T12:58:26;3.70;37.70
3037;DHT22;1528;52.550;13.408;2022-11-20T13:01:24;3.80;36.10
3037;DHT22;1528;52.550;13.408;2022-11-20T13:04:55;3.80;35.70
3037;DHT22;1528;52.550;13.408;2022-11-20T13:07:51;3.70;39.50
3037;DHT22;1528;52.550;13.408;2022-11-20T13:10:43;3.80;38.80
3037;DHT22;1528;52.550;13.408;2022-11-20T13:13:42;3.70;41.10
3037;DHT22;1528;52.550;13.408;2022-11-20T13:16:33;3.80;37.40
3037;DHT22;1528;52.550;13.408;2022-11-20T13:19:22;3.70;36.50
3037;DHT22;1528;52.550;13.408;2022-11-20T13:22:08;3.60;35.20
3037;DHT22;1528;52.550;13.408;2022-11-20T13:24:53;3.70;36.40
3037;DHT22;1528;52.550;13.408;2022-11-20T13:27:47;3.70;35.40
3037;DHT22;1528;52.550;13.408;2022-11-20T13:30:35;3.70;34.30
3037;DHT22;1528;52.550;13.408;2022-11-20T13:33:25;3.60;34.10
3037;DHT22;1528;52.550;13.408;2022-11-20T13:36:22;3.60;36.30
3037;DHT22;1528;52.550;13.408;2022-11-20T13:39:08;3.60;33.70
3037;DHT22;1528;52.550;13.408;2022-11-20T13:41:55;3.50;34.50
3037;DHT22;1528;52.550;13.408;2022-11-20T13:44:44;3.50;34.20
3037;DHT22;1528;52.550;13.408;2022-11-20T13:47:31;3.50;34.80
3037;DHT22;1528;52.550;13.408;2022-11-20T13:50:17;3.40;35.60
3037;DHT22;1528;52.550;13.408;2022-11-20T13:53:13;3.30;36.30
3037;DHT22;1528;52.550;13.408;2022-11-20T13:56:08;3.30;35.60
3037;DHT22;1528;52.550;13.408;2022-11-20T13:59:04;3.30;36.60
3037;DHT22;1528;52.550;13.408;2022-11-20T14:01:53;3.30;35.90
3037;DHT22;1528;52.550;13.408;2022-11-20T14:04:43;3.10;36.20
3037;DHT22;1528;52.550;13.408;2022-11-20T14:07:34;3.20;36.10
3037;DHT22;1528;52.550;13.408;2022-11-20T14:10:22;3.10;36.60
3037;DHT22;1528;52.550;13.408;2022-11-20T14:13:16;3.10;35.90
3037;DHT22;1528;52.550;13.408;2022-11-20T14:16:02;3.10;35.10
3037;DHT22;1528;52.550;13.408;2022-11-20T14:18:48;2.80;36.50
3037;DHT22;1528;52.550;13.408;2022-11-20T14:21:35;2.70;36.90
3037;DHT22;1528;52.550;13.408;2022-11-20T14:24:22;2.80;37.00
3037;DHT22;1528;52.550;13.408;2022-11-20T14:27:13;3.00;36.60
3037;DHT22;1528;52.550;13.408;2022-11-20T14:30:01;2.90;37.20
3037;DHT22;1528;52.550;13.408;2022-11-20T14:32:47;3.00;35.60
3037;DHT22;1528;52.550;13.408;2022-11-20T14:35:35;2.80;38.60
3037;DHT22;1528;52.550;13.408;2022-11-20T14:38:25;2.80;37.90
3037;DHT22;1528;52.550;13.408;2022-11-20T14:41:17;3.10;36.10
3037;DHT22;1528;52.550;13.408;2022-11-20T14:44:04;3.10;36.90
3037;DHT22;1528;52.550;13.408;2022-11-20T14:46:51;3.20;35.50
3037;DHT22;1528;52.550;13.408;2022-11-20T14:49:38;3.10;35.20
3037;DHT22;1528;52.550;13.408;2022-11-20T14:52:26;3.10;35.20
3037;DHT22;1528;52.550;13.408;2022-11-20T14:55:25;3.10;34.70
3037;DHT22;1528;52.550;13.408;2022-11-20T14:58:21;3.10;35.30
3037;DHT22;1528;52.550;13.408;2022-11-20T15:01:11;3.20;34.40
3037;DHT22;1528;52.550;13.408;2022-11-20T15:04:00;3.10;35.00
3037;DHT22;1528;52.550;13.408;2022-11-20T15:06:50;3.10;36.00
3037;DHT22;1528;52.550;13.408;2022-11-20T15:09:35;3.20;34.90
3037;DHT22;1528;52.550;13.408;2022-11-20T15:12:24;3.30;34.30
3037;DHT22;1528;52.550;13.408;2022-11-20T15:15:12;3.30;34.60
3037;DHT22;1528;52.550;13.408;2022-11-20T15:18:00;3.20;35.10
3037;DHT22;1528;52.550;13.408;2022-11-20T15:20:46;3.20;35.10
3037;DHT22;1528;52.550;13.408;2022-11-20T15:23:31;3.10;34.90
3037;DHT22;1528;52.550;13.408;2022-11-20T15:26:25;3.10;34.40
3037;DHT22;1528;52.550;13.408;2022-11-20T15:29:15;3.10;34.10
3037;DHT22;1528;52.550;13.408;2022-11-20T15:32:02;3.00;34.40
3037;DHT22;1528;52.550;13.408;2022-11-20T15:34:48;3.00;34.00
3037;DHT22;1528;52.550;13.408;2022-11-20T15:37:34;3.00;34.10
3037;DHT22;1528;52.550;13.408;2022-11-20T15:40:20;2.90;34.50
3037;DHT22;1528;52.550;13.408;2022-11-20T15:43:06;3.00;34.30
3037;DHT22;1528;52.550;13.408;2022-11-20T15:45:54;3.00;34.40
3037;DHT22;1528;52.550;13.408;2022-11-20T15:48:42;3.00;34.20
3037;DHT22;1528;52.550;13.408;2022-11-20T15:51:30;2.90;34.80
3037;DHT22;1528;52.550;13.408;2022-11-20T15:54:17;2.90;34.80
3037;DHT22;1528;52.550;13.408;2022-11-20T15:57:04;2.80;34.90
3037;DHT22;1528;52.550;13.408;2022-11-20T15:59:50;2.80;34.90
3037;DHT22;1528;52.550;13.408;2022-11-20T16:02:37;2.80;34.70
3037;DHT22;1528;52.550;13.408;2022-11-20T16:05:23;2.90;34.80
3037;DHT22;1528;52.550;13.408;2022-11-20T16:08:08;2.70;35.40
3037;DHT22;1528;52.550;13.408;2022-11-20T16:10:54;3.00;34.60
3037;DHT22;1528;52.550;13.408;2022-11-20T16:13:40;2.90;34.00
3037;DHT22;1528;52.550;13.408;2022-11-20T16:20:34;2.80;35.20
3037;DHT22;1528;52.550;13.408;2022-11-20T16:23:28;2.80;34.30
3037;DHT22;1528;52.550;13.408;2022-11-20T16:26:19;2.60;34.70
3037;DHT22;1528;52.550;13.408;2022-11-20T16:30:42;2.60;34.60
3037;DHT22;1528;52.550;13.408;2022-11-20T16:32:46;2.60;34.10
3037;DHT22;1528;52.550;13.408;2022-11-20T16:35:33;2.70;34.70
3037;DHT22;1528;52.550;13.408;2022-11-20T16:38:19;2.60;34.10
3037;DHT22;1528;52.550;13.408;2022-11-20T16:41:05;2.60;34.00
3037;DHT22;1528;52.550;13.408;2022-11-20T16:43:58;2.40;33.90
3037;DHT22;1528;52.550;13.408;2022-11-20T16:46:45;2.50;33.90
3037;DHT22;1528;52.550;13.408;2022-11-20T16:49:31;2.40;34.20
3037;DHT22;1528;52.550;13.408;2022-11-20T16:52:18;2.50;34.20
3037;DHT22;1528;52.550;13.408;2022-11-20T16:55:05;2.40;34.40
3037;DHT22;1528;52.550;13.408;2022-11-20T16:57:51;2.50;33.80
3037;DHT22;1528;52.550;13.408;2022-11-20T17:00:36;2.50;33.50
3037;DHT22;1528;52.550;13.408;2022-11-20T17:03:22;2.50;33.80
3037;DHT22;1528;52.550;13.408;2022-11-20T17:06:12;2.50;34.50
3037;DHT22;1528;52.550;13.408;2022-11-20T17:09:00;2.60;33.10
3037;DHT22;1528;52.550;13.408;2022-11-20T17:11:47;2.60;33.70
3037;DHT22;1528;52.550;13.408;2022-11-20T17:14:33;2.80;32.80
3037;DHT22;1528;52.550;13.408;2022-11-20T17:17:19;2.90;32.30
3037;DHT22;1528;52.550;13.408;2022-11-20T17:20:06;2.70;32.80
3037;DHT22;1528;52.550;13.408;2022-11-20T17:22:52;2.70;33.00
3037;DHT22;1528;52.550;13.408;2022-11-20T17:25:39;2.50;31.70
3037;DHT22;1528;52.550;13.408;2022-11-20T17:28:24;2.90;32.30
3037;DHT22;1528;52.550;13.408;2022-11-20T17:31:12;3.10;31.60
3037;DHT22;1528;52.550;13.408;2022-11-20T17:33:58;3.30;32.00
3037;DHT22;1528;52.550;13.408;2022-11-20T17:36:45;3.00;32.00
3037;DHT22;1528;52.550;13.408;2022-11-20T17:39:30;3.00;32.40
3037;DHT22;1528;52.550;13.408;2022-11-20T17:42:18;3.10;31.80
3037;DHT22;1528;52.550;13.408;2022-11-20T17:45:19;3.00;32.10
3037;DHT22;1528;52.550;13.408;2022-11-20T17:48:05;3.00;32.30
3037;DHT22;1528;52.550;13.408;2022-11-20T17:50:51;3.10;32.50
3037;DHT22;1528;52.550;13.408;2022-11-20T17:53:38;3.00;32.50
3037;DHT22;1528;52.550;13.408;2022-11-20T17:56:24;3.20;31.80
3037;DHT22;1528;52.550;13.408;2022-11-20T17:59:29;3.10;32.20
3037;DHT22;1528;52.550;13.408;2022-11-20T18:02:25;3.30;31.60
3037;DHT22;1528;52.550;13.408;2022-11-20T18:05:11;3.30;31.80
3037;DHT22;1528;52.550;13.408;2022-11-20T18:07:56;3.30;32.60
3037;DHT22;1528;52.550;13.408;2022-11-20T18:10:42;3.60;31.30
3037;DHT22;1528;52.550;13.408;2022-11-20T18:13:28;3.50;31.50
3037;DHT22;1528;52.550;13.408;2022-11-20T18:16:37;3.50;31.20
3037;DHT22;1528;52.550;13.408;2022-11-20T18:19:27;3.40;31.00
3037;DHT22;1528;52.550;13.408;2022-11-20T18:22:15;3.40;32.00
3037;DHT22;1528;52.550;13.408;2022-11-20T18:25:01;3.40;32.90
3037;DHT22;1528;52.550;13.408;2022-11-20T18:27:47;3.40;32.80
3037;DHT22;1528;52.550;13.408;2022-11-20T18:30:32;3.50;31.80
3037;DHT22;1528;52.550;13.408;2022-11-20T18:33:21;3.30;32.60